Time;durP1;ratioP1;P1;durP2;ratioP2;P2;SDS_P1;SDS_P2;PMS_P1;PMS_P2;Temp;Humidity;BMP_temperature;BMP_pressure;BME280_temperature;BME280_humidity;BME280_pressure;Samples;Min_cycle;Max_cycle;Signal;HPM_P1;HPM_P2
2022/05/20 00:00:35;;;;;;;;;;;;;;;7.52;100.00;99974.88;1730341;81;20425;-59
2022/05/20 00:03:01;;;;;;;4.22;1.50;;;;;;;7.55;100.00;99964.89;1730316;82;20110;-59
2022/05/20 00:05:29;;;;;;;3.50;1.50;;;;;;;7.57;100.00;99964.13;1700285;82;21038;-56
2022/05/20 00:07:56;;;;;;;7.47;1.75;;;;;;;7.64;100.00;99963.96;1664733;85;21002;-58
2022/05/20 00:10:22;;;;;;;3.37;1.65;;;;;;;7.65;100.00;99963.70;1693109;83;21050;-59
2022/05/20 00:12:50;;;;;;;8.10;1.60;;;;;;;7.68;100.00;99956.98;1665816;85;21473;-58
2022/05/20 00:15:21;;;;;;;3.58;1.50;;;;;;;7.72;100.00;99950.00;1694608;83;20979;-58
2022/05/20 00:17:48;;;;;;;3.30;1.72;;;;;;;7.75;100.00;99949.50;1670254;85;21029;-58
2022/05/20 00:20:19;;;;;;;2.83;1.52;;;;;;;7.80;100.00;99947.67;1664377;85;20995;-59
2022/05/20 00:22:46;;;;;;;5.28;1.82;;;;;;;7.84;100.00;99944.76;1695721;83;21034;-59
2022/05/20 00:27:59;;;;;;;4.90;1.70;;;;;;;7.93;100.00;99942.46;1669029;85;20987;-59
2022/05/20 00:30:25;;;;;;;3.60;1.80;;;;;;;7.96;100.00;99942.78;1668752;83;21534;-59
2022/05/20 00:32:53;;;;;;;5.17;1.95;;;;;;;8.01;100.00;99945.55;1667105;85;21977;-58
2022/05/20 00:35:21;;;;;;;3.90;1.32;;;;;;;8.06;100.00;99945.34;1675894;84;21119;-59
2022/05/20 00:37:47;;;;;;;4.28;1.70;;;;;;;8.09;100.00;99951.08;1663880;85;21022;-59
2022/05/20 00:40:16;;;;;;;;;;;;;;;8.12;100.00;99953.28;1667792;85;21000;-59
2022/05/20 00:42:43;;;;;;;4.17;1.65;;;;;;;8.16;100.00;99950.36;1693110;83;20423;-59
2022/05/20 00:45:10;;;;;;;3.50;1.50;;;;;;;8.14;100.00;99951.69;1662384;85;21420;-59
2022/05/20 00:47:37;;;;;;;4.60;1.60;;;;;;;8.19;100.00;99946.32;1666033;85;21029;-59
2022/05/20 00:50:08;;;;;;;4.50;1.62;;;;;;;8.25;100.00;99952.12;1652129;85;21424;-58
2022/05/20 00:52:36;;;;;;;7.45;1.87;;;;;;;8.30;100.00;99943.53;1677830;84;21020;-59
2022/05/20 00:55:06;;;;;;;4.55;1.70;;;;;;;8.36;100.00;99937.09;1676969;84;20983;-59
2022/05/20 00:57:38;;;;;;;3.33;1.65;;;;;;;8.41;100.00;99931.73;1684361;85;21071;-58
2022/05/20 01:00:10;;;;;;;4.67;1.80;;;;;;;8.48;100.00;99932.37;1679011;84;20963;-58
2022/05/20 01:02:37;;;;;;;6.30;1.90;;;;;;;8.56;100.00;99930.28;1678371;84;21079;-60
2022/05/20 01:05:09;;;;;;;4.90;1.82;;;;;;;8.59;100.00;99927.05;1677037;85;21417;-59
2022/05/20 01:07:37;;;;;;;6.15;1.95;;;;;;;8.65;100.00;99931.45;1678914;85;21011;-57
2022/05/20 01:10:05;;;;;;;4.12;2.12;;;;;;;8.67;100.00;99933.39;1677421;84;20951;-58
2022/05/20 01:12:32;;;;;;;5.10;2.08;;;;;;;8.71;100.00;99945.39;1693831;84;21015;-58
2022/05/20 01:15:00;;;;;;;6.25;2.35;;;;;;;8.73;100.00;99939.98;1666082;85;20984;-58
2022/05/20 01:17:27;;;;;;;;;;;;;;;8.76;100.00;99934.56;1669012;85;21438;-58
2022/05/20 01:19:55;;;;;;;4.42;1.98;;;;;;;8.79;100.00;99927.27;1670789;85;20502;-59
2022/05/20 01:23:00;;;;;;;6.20;2.05;;;;;;;8.75;100.00;99928.31;1667767;84;21132;-58
2022/05/20 01:25:29;;;;;;;5.55;2.10;;;;;;;8.78;100.00;99929.19;1665286;85;21070;-58
2022/05/20 01:27:57;;;;;;;6.85;1.90;;;;;;;8.82;100.00;99924.07;1694583;83;20990;-58
2022/05/20 01:30:25;;;;;;;4.53;2.15;;;;;;;8.85;100.00;99924.91;1678037;84;21490;-58
2022/05/20 01:32:52;;;;;;;3.55;1.70;;;;;;;8.92;100.00;99921.45;1675142;85;21895;-58
2022/05/20 01:35:38;;;;;;;4.65;1.95;;;;;;;8.96;100.00;99924.73;1689730;83;21082;-59
2022/05/20 01:38:07;;;;;;;5.08;2.15;;;;;;;8.99;100.00;99917.46;1680233;84;21029;-59
2022/05/20 01:40:45;;;;;;;4.03;1.77;;;;;;;9.02;100.00;99926.98;1678709;84;21518;-59
2022/05/20 01:43:20;;;;;;;4.65;2.45;;;;;;;9.03;100.00;99918.30;1679541;84;21019;-59
2022/05/20 01:45:54;;;;;;;6.00;2.22;;;;;;;9.05;100.00;99918.31;1684000;85;21053;-59
2022/05/20 01:48:52;;;;;;;5.22;2.12;;;;;;;9.07;100.00;99914.79;1665142;85;21036;-59
2022/05/20 01:51:19;;;;;;;4.53;1.90;;;;;;;9.12;100.00;99921.64;1660475;85;21068;-59
2022/05/20 01:53:50;;;;;;;;;;;;;;;9.21;100.00;99911.93;1676255;84;21473;-59
2022/05/20 01:56:21;;;;;;;3.65;1.70;;;;;;;9.25;100.00;99904.91;1663470;84;20429;-59
2022/05/20 01:59:14;;;;;;;5.30;2.25;;;;;;;9.19;100.00;99909.20;1713435;82;20995;-58
2022/05/20 02:01:46;;;;;;;6.08;2.02;;;;;;;9.21;100.00;99911.93;1670678;84;21045;-59
2022/05/20 02:04:25;;;;;;;6.17;2.17;;;;;;;9.21;100.00;99920.64;1703861;82;21023;-59
2022/05/20 02:06:56;;;;;;;6.08;1.98;;;;;;;9.19;100.00;99928.22;1716458;82;21788;-59
2022/05/20 02:09:37;;;;;;;5.37;1.85;;;;;;;9.14;100.00;99933.05;1715646;82;21007;-59
2022/05/20 02:12:06;;;;;;;2.58;1.65;;;;;;;9.13;100.00;99934.16;1725344;81;21022;-59
2022/05/20 02:14:38;;;;;;;5.22;2.17;;;;;;;9.13;100.00;99935.52;1722900;82;20968;-59
2022/05/20 02:17:24;;;;;;;5.35;2.05;;;;;;;9.15;100.00;99924.37;1722268;82;21058;-59
2022/05/20 02:19:55;;;;;;;5.10;2.15;;;;;;;9.18;100.00;99917.88;1720368;82;20991;-59
2022/05/20 02:22:24;;;;;;;6.33;2.33;;;;;;;9.20;100.00;99927.97;1722710;82;21105;-59
2022/05/20 02:24:51;;;;;;;4.42;2.50;;;;;;;9.23;100.00;99916.58;1733822;82;20955;-59
2022/05/20 02:27:23;;;;;;;5.67;2.00;;;;;;;9.28;100.00;99917.97;1720824;81;21051;-58
2022/05/20 02:29:56;;;;;;;4.55;1.85;;;;;;;9.31;100.00;99916.12;1720352;82;20986;-58
2022/05/20 02:32:30;;;;;;;3.90;2.22;;;;;;;9.35;100.00;99913.14;1699197;83;21055;-59
2022/05/20 02:34:58;;;;;;;3.60;2.00;;;;;;;9.40;100.00;99913.72;1725423;81;20967;-58
2022/05/20 02:37:31;;;;;;;3.58;2.00;;;;;;;9.42;100.00;99915.66;1726463;82;21054;-59
2022/05/20 02:39:58;;;;;;;6.20;2.25;;;;;;;9.44;100.00;99917.03;1720385;82;21026;-59
2022/05/20 02:42:27;;;;;;;4.15;2.35;;;;;;;9.52;100.00;99909.48;1722603;82;21609;-59
2022/05/20 02:44:53;;;;;;;4.33;2.25;;;;;;;9.58;100.00;99917.41;1721219;82;20982;-59
2022/05/20 02:47:20;;;;;;;;;;;;;;;9.60;100.00;99928.81;1724249;82;21031;-59
2022/05/20 02:49:46;;;;;;;4.60;2.50;;;;;;;9.59;100.00;99931.81;1692281;82;20566;-59
2022/05/20 02:52:13;;;;;;;8.63;2.37;;;;;;;9.53;100.00;99930.15;1715412;82;21415;-59
2022/05/20 02:54:39;;;;;;;4.12;2.35;;;;;;;9.57;100.00;99927.98;1716637;82;20992;-59
2022/05/20 02:57:05;;;;;;;5.33;2.27;;;;;;;9.63;100.00;99930.22;1721425;82;21475;-59
2022/05/20 03:05:01;;;;;;;7.17;2.50;;;;;;;9.80;100.00;99930.88;1723716;81;20950;-58
2022/05/20 03:07:28;;;;;;;4.87;2.25;;;;;;;9.86;100.00;99931.18;1730584;82;21002;-59
2022/05/20 03:09:54;;;;;;;;;;;;;;;9.92;100.00;99937.74;1725250;82;21019;-59
2022/05/20 03:12:20;;;;;;;6.40;2.50;;;;;;;9.97;100.00;99935.07;1719706;82;20099;-58
2022/05/20 03:14:48;;;;;;;6.12;2.50;;;;;;;9.96;100.00;99937.50;1717218;82;21018;-59
2022/05/20 03:17:15;;;;;;;5.28;2.45;;;;;;;10.02;100.00;99930.20;1710805;83;21066;-59
2022/05/20 03:19:41;;;;;;;4.95;2.17;;;;;;;10.09;100.00;99936.77;1731344;82;21424;-59
2022/05/20 03:22:08;;;;;;;4.62;2.20;;;;;;;10.16;100.00;99938.20;1729809;82;21334;-59
2022/05/20 03:24:34;;;;;;;4.40;2.15;;;;;;;10.23;100.00;99948.84;1722216;82;21565;-59
2022/05/20 03:27:02;;;;;;;6.15;2.00;;;;;;;10.35;100.00;99945.36;1723044;81;21090;-59
2022/05/20 03:29:29;;;;;;;7.03;2.80;;;;;;;10.47;100.00;99946.79;1725938;82;20975;-59
2022/05/20 03:31:56;;;;;;;5.67;2.00;;;;;;;10.58;100.00;99937.30;1726469;82;21503;-59
2022/05/20 03:34:22;;;;;;;6.78;2.75;;;;;;;10.67;100.00;99937.05;1717994;82;20995;-59
2022/05/20 03:36:50;;;;;;;7.05;2.65;;;;;;;10.74;100.00;99934.34;1726471;82;21575;-59
2022/05/20 03:39:20;;;;;;;6.42;2.47;;;;;;;10.82;100.00;99927.03;1722020;83;21050;-59
2022/05/20 03:41:47;;;;;;;4.67;2.37;;;;;;;10.90;100.00;99929.77;1722383;82;21026;-59
2022/05/20 03:44:16;;;;;;;7.08;2.47;;;;;;;10.97;100.00;99928.43;1723864;82;20971;-59
2022/05/20 03:46:45;;;;;;;4.90;2.20;;;;;;;11.05;100.00;99924.91;1682476;85;21050;-59
2022/05/20 03:49:12;;;;;;;4.75;2.45;;;;;;;11.12;100.00;99934.45;1680252;84;20995;-60
2022/05/20 03:51:39;;;;;;;5.35;2.55;;;;;;;11.15;100.00;99932.55;1715113;82;21050;-61
2022/05/20 03:54:06;;;;;;;5.05;2.60;;;;;;;11.20;100.00;99939.34;1676204;84;21082;-59
2022/05/20 03:56:34;;;;;;;7.10;3.00;;;;;;;11.23;100.00;99945.61;1716115;82;21015;-59
2022/05/20 03:59:01;;;;;;;5.05;2.77;;;;;;;11.21;100.00;99947.80;1718384;82;21007;-59
2022/05/20 04:04:12;;;;;;;4.87;2.35;;;;;;;11.13;100.00;99956.50;1713250;82;20108;-60
2022/05/20 04:06:38;;;;;;;5.22;2.27;;;;;;;10.98;100.00;99968.75;1719946;82;21913;-60
2022/05/20 04:09:06;;;;;;;4.28;2.42;;;;;;;10.96;100.00;99969.55;1721291;82;20964;-59
2022/05/20 04:11:33;;;;;;;5.12;2.60;;;;;;;10.93;100.00;99977.72;1720897;82;21583;-59
2022/05/20 04:14:01;;;;;;;;;;;;;;;10.94;100.00;99977.18;1724947;82;21620;-59
2022/05/20 04:16:27;;;;;;;8.38;2.35;;;;;;;11.09;100.00;99973.11;1715281;82;20125;-60
2022/05/20 04:18:54;;;;;;;5.65;2.42;;;;;;;11.09;100.00;99973.11;1716124;82;21570;-60
2022/05/20 04:21:20;;;;;;;7.25;3.92;;;;;;;11.15;100.00;99965.24;1680697;83;21039;-60
2022/05/20 04:23:47;;;;;;;;;;;;;;;11.14;100.00;99966.32;1650503;85;21007;-60
2022/05/20 04:26:13;;;;;;;24.47;15.80;;;;;;;11.19;100.00;99972.33;1682523;83;20379;-60
2022/05/20 04:28:41;;;;;;;24.75;15.03;;;;;;;11.17;100.00;99968.50;1716067;82;21538;-59
2022/05/20 04:31:08;;;;;;;9.73;6.35;;;;;;;11.26;100.00;99960.09;1711244;82;20991;-60
2022/05/20 04:33:35;;;;;;;19.73;16.65;;;;;;;11.37;100.00;99967.16;1711412;82;20996;-59
2022/05/20 04:36:01;;;;;;;14.68;12.37;;;;;;;11.42;100.00;99967.72;1709092;82;21027;-60
2022/05/20 04:38:28;;;;;;;24.63;21.77;;;;;;;11.45;100.00;99969.35;1689538;83;21020;-60
2022/05/20 04:49:09;;;;;;;11.12;8.93;;;;;;;11.51;100.00;99968.00;1730385;82;21023;-60
2022/05/20 04:51:39;;;;;;;7.70;4.60;;;;;;;11.64;100.00;99981.91;1722422;82;21052;-60
2022/05/20 04:56:51;;;;;;;4.65;2.60;;;;;;;12.04;100.00;99970.73;1713389;82;21049;-60
2022/05/20 04:59:20;;;;;;;4.65;2.62;;;;;;;12.21;100.00;99963.87;1719694;82;21038;-60
2022/05/20 05:01:48;;;;;;;6.78;2.52;;;;;;;12.36;100.00;99963.80;1700635;83;21101;-59
2022/05/20 05:04:17;;;;;;;11.97;10.40;;;;;;;12.46;100.00;99965.16;1726742;82;21430;-58
2022/05/20 05:06:44;;;;;;;9.88;4.70;;;;;;;12.61;100.00;99971.09;1721926;82;21024;-59
2022/05/20 05:09:11;;;;;;;4.08;2.58;;;;;;;12.74;100.00;99969.69;1700585;82;21540;-58
2022/05/20 05:11:40;;;;;;;6.37;2.33;;;;;;;12.90;100.00;99969.86;1724771;82;20976;-58
2022/05/20 05:14:08;;;;;;;7.15;3.00;;;;;;;12.97;100.00;99975.84;1722704;82;20975;-56
2022/05/20 05:16:35;;;;;;;6.45;3.00;;;;;;;13.02;100.00;99977.73;1717229;82;21098;-57
2022/05/20 05:19:01;;;;;;;8.03;3.35;;;;;;;13.02;100.00;99977.73;1721976;82;20983;-58
2022/05/20 05:21:28;;;;;;;5.75;2.85;;;;;;;13.04;100.00;99981.02;1672876;83;21491;-58
2022/05/20 05:23:54;;;;;;;;;;;;;;;13.03;100.00;99993.86;1723776;82;21055;-59
2022/05/20 05:26:22;;;;;;;11.33;3.30;;;;;;;13.04;100.00;99995.48;1722493;82;20107;-59
2022/05/20 05:28:48;;;;;;;6.58;3.22;;;;;;;13.03;100.00;99993.86;1724315;82;21655;-59
2022/05/20 05:31:15;;;;;;;8.20;4.25;;;;;;;13.13;100.00;99993.02;1721768;82;21114;-59
2022/05/20 05:33:42;;;;;;;;;;;;;;;13.23;100.00;99991.58;1729718;82;20988;-59
2022/05/20 05:36:09;;;;;;;8.88;4.55;;;;;;;13.30;100.00;99991.53;1732990;81;20107;-59
2022/05/20 05:38:35;;;;;;;9.60;4.92;;;;;;;13.39;100.00;99997.23;1680449;84;21015;-59
2022/05/20 05:41:01;;;;;;;10.25;4.75;;;;;;;13.52;100.00;99988.38;1714692;82;21031;-59
2022/05/20 05:43:28;;;;;;;8.48;4.20;;;;;;;13.55;100.00;99985.08;1722627;82;21498;-59
2022/05/20 05:45:55;;;;;;;8.00;4.17;;;;;;;13.60;100.00;99986.41;1723295;82;21550;-59
2022/05/20 05:48:21;;;;;;;7.17;4.08;;;;;;;13.66;100.00;99983.90;1705099;82;21462;-59
2022/05/20 05:50:47;;;;;;;;;;;;;;;13.75;100.00;99982.71;1708431;82;21074;-59
2022/05/20 05:53:17;;;;;;;8.13;3.75;;;;;;;13.84;100.00;99981.83;1705588;84;20094;-59
2022/05/20 05:55:51;;;;;;;7.67;3.85;;;;;;;13.89;100.00;99979.58;1680242;84;21059;-59
2022/05/20 05:58:19;;;;;;;7.03;4.15;;;;;;;13.95;100.00;99986.66;1653792;85;21013;-59
2022/05/20 06:00:46;;;;;;;10.03;3.92;;;;;;;14.03;100.00;99973.70;1713279;82;21027;-59
2022/05/20 06:03:16;;;;;;;8.28;4.33;;;;;;;14.08;100.00;99969.55;1706684;84;20991;-59
2022/05/20 06:05:43;;;;;;;10.03;3.62;;;;;;;14.15;100.00;99975.51;1715239;82;21019;-59
2022/05/20 06:08:10;;;;;;;8.23;3.87;;;;;;;14.18;100.00;99970.81;1669163;84;21475;-60
2022/05/20 06:10:38;;;;;;;9.33;4.30;;;;;;;14.20;100.00;99974.09;1716121;83;21000;-59
2022/05/20 06:13:05;;;;;;;11.25;4.22;;;;;;;14.22;100.00;99989.67;1717020;83;21475;-59
2022/05/20 06:15:31;;;;;;;8.53;4.75;;;;;;;14.30;100.00;99993.70;1725414;81;21518;-59
2022/05/20 06:17:58;;;;;;;;;;;;;;;14.42;100.00;99995.50;1718979;82;20948;-59
2022/05/20 06:20:25;;;;;;;9.30;4.55;;;;;;;14.58;100.00;100000.27;1715042;82;20096;-59
2022/05/20 06:22:52;;;;;;;9.58;5.15;;;;;;;14.66;100.00;100002.38;1716355;82;20968;-59
2022/05/20 06:25:19;;;;;;;10.53;4.58;;;;;;;14.83;100.00;99999.42;1721405;81;21082;-59
2022/05/20 06:27:46;;;;;;;11.08;5.03;;;;;;;15.11;100.00;100003.16;1684074;83;20960;-59
2022/05/20 06:30:14;;;;;;;;;;;;;;;15.50;100.00;100000.16;1724271;81;20975;-59
2022/05/20 06:32:41;;;;;;;11.22;6.45;;;;;;;15.92;100.00;99994.53;1706029;82;20132;-59
2022/05/20 06:40:48;;;;;;;17.02;9.68;;;;;;;16.77;100.00;99989.11;1709899;82;21491;-59
2022/05/20 06:43:18;;;;;;;20.32;10.70;;;;;;;17.02;100.00;99980.33;1711808;82;20946;-59
2022/05/20 06:45:52;;;;;;;20.60;11.97;;;;;;;17.34;100.00;99980.71;1682609;85;21097;-59
2022/05/20 06:48:19;;;;;;;18.82;11.45;;;;;;;17.47;100.00;99974.89;1677466;83;20935;-59
2022/05/20 06:50:45;;;;;;;20.55;10.80;;;;;;;17.51;100.00;99977.28;1716382;82;21020;-59
2022/05/20 06:53:12;;;;;;;19.77;11.18;;;;;;;17.65;100.00;99984.39;1716580;82;21034;-60
2022/05/20 06:55:38;;;;;;;16.87;10.53;;;;;;;17.75;100.00;99981.39;1716580;82;21513;-60
2022/05/20 06:58:05;;;;;;;21.02;11.12;;;;;;;17.75;100.00;99979.19;1714192;82;20976;-60
2022/05/20 07:00:31;;;;;;;19.73;11.28;;;;;;;17.71;100.00;99977.63;1732905;82;21063;-59
2022/05/20 07:02:58;;;;;;;20.68;11.05;;;;;;;17.63;100.00;99978.95;1720608;82;20991;-59
2022/05/20 07:05:27;;;;;;;16.97;10.53;;;;;;;17.65;100.00;99978.89;1704330;82;21114;-59
2022/05/20 07:07:53;;;;;;;19.10;10.58;;;;;;;17.58;100.00;99978.52;1703782;82;20955;-59
2022/05/20 07:10:20;;;;;;;19.20;10.65;;;;;;;17.53;100.00;99971.73;1717623;82;21079;-59
2022/05/20 07:12:46;;;;;;;18.52;10.20;;;;;;;17.55;100.00;99970.85;1709680;82;20944;-60
2022/05/20 07:15:13;;;;;;;19.42;10.63;;;;;;;17.55;100.00;99967.28;1713071;82;21806;-59
2022/05/20 07:17:39;;;;;;;20.55;10.78;;;;;;;17.58;100.00;99954.30;1713047;82;20960;-59
2022/05/20 07:20:10;;;;;;;16.48;9.95;;;;;;;17.67;100.00;99971.15;1708081;82;21550;-59
2022/05/20 07:22:36;;;;;;;15.53;8.93;;;;;;;17.80;100.00;99957.88;1706394;82;21561;-59
2022/05/20 07:25:04;;;;;;;16.87;8.93;;;;;;;17.97;100.00;99970.92;1704459;82;21893;-60
2022/05/20 07:27:30;;;;;;;14.95;8.48;;;;;;;18.04;100.00;99965.78;1698582;82;20982;-59
2022/05/20 07:29:57;;;;;;;15.30;8.43;;;;;;;18.08;100.00;99960.45;1704717;82;21542;-59
2022/05/20 07:32:24;;;;;;;20.45;8.65;;;;;;;18.11;100.00;99959.27;1707936;82;20960;-59
2022/05/20 07:34:50;;;;;;;16.93;8.95;;;;;;;18.07;100.00;99954.13;1720411;82;20972;-59
2022/05/20 07:37:17;;;;;;;19.27;9.08;;;;;;;17.96;100.00;99959.66;1683202;83;21605;-59
2022/05/20 07:39:44;;;;;;;18.23;8.10;;;;;;;17.82;100.00;99958.91;1722277;82;21026;-59
2022/05/20 07:42:11;;;;;;;12.88;8.28;;;;;;;17.66;100.00;99954.93;1690218;84;21027;-59
2022/05/20 07:44:37;;;;;;;12.68;7.37;;;;;;;17.49;100.00;99952.02;1715841;82;21027;-59
2022/05/20 07:47:04;;;;;;;;;;;;;;;17.36;100.00;99951.75;1709526;82;21031;-60
2022/05/20 07:49:30;;;;;;;12.68;7.17;;;;;;;17.29;100.00;99956.05;1697456;83;20099;-59
2022/05/20 07:51:57;;;;;;;14.70;6.83;;;;;;;17.19;100.00;99949.41;1725035;82;21002;-60
2022/05/20 07:54:25;;;;;;;11.93;6.00;;;;;;;17.19;100.00;99948.86;1729658;81;20985;-59
2022/05/20 07:56:57;;;;;;;11.10;5.95;;;;;;;17.23;100.00;99949.05;1694263;83;21093;-59
2022/05/20 07:59:34;;;;;;;10.38;6.00;;;;;;;17.31;100.00;99952.45;1691921;83;21047;-60
2022/05/20 08:02:00;;;;;;;13.28;6.58;;;;;;;17.39;100.00;99951.72;1678886;84;21032;-59
2022/05/20 08:07:18;;;;;;;12.35;6.10;;;;;;;17.49;100.00;99956.16;1679129;84;20176;-59
2022/05/20 08:09:45;;;;;;;13.70;5.95;;;;;;;17.48;100.00;99956.70;1677211;85;21495;-59
2022/05/20 08:12:13;;;;;;;12.82;6.35;;;;;;;17.64;100.00;99955.23;1681177;84;21570;-60
2022/05/20 08:14:40;;;;;;;10.50;5.72;;;;;;;17.88;100.00;99944.73;1659830;85;21031;-60
2022/05/20 08:17:06;;;;;;;;;;;;;;;18.22;100.00;99939.13;1683260;83;21101;-59
2022/05/20 08:19:33;;;;;;;11.70;5.20;;;;;;;18.54;100.00;99937.99;1685253;85;20172;-61
2022/05/20 08:22:00;;;;;;;10.08;5.28;;;;;;;18.70;100.00;99930.36;1680819;84;21530;-60
2022/05/20 08:24:26;;;;;;;10.98;5.28;;;;;;;18.96;100.00;99919.36;1684553;85;21041;-60
2022/05/20 08:26:53;;;;;;;9.93;4.95;;;;;;;19.19;100.00;99912.58;1677356;84;21050;-60
2022/05/20 08:29:20;;;;;;;13.03;4.40;;;;;;;19.45;100.00;99894.63;1697157;83;21057;-60
2022/05/20 08:31:47;;;;;;;7.45;4.25;;;;;;;19.64;100.00;99881.86;1712954;82;21522;-59
2022/05/20 08:34:14;;;;;;;7.33;3.77;;;;;;;19.88;99.23;99883.50;1696826;84;21074;-60
2022/05/20 08:36:41;;;;;;;7.45;3.55;;;;;;;19.97;79.56;99885.68;1658512;85;21047;-60
2022/05/20 08:39:10;;;;;;;6.67;3.30;;;;;;;19.98;83.98;99887.88;1676679;84;21007;-60
2022/05/20 08:41:46;;;;;;;10.18;3.40;;;;;;;20.06;80.02;99888.39;1675691;84;21093;-60
2022/05/20 08:44:18;;;;;;;6.40;3.00;;;;;;;20.14;77.24;99878.70;1681040;84;20988;-60
2022/05/20 08:46:44;;;;;;;7.62;3.20;;;;;;;20.17;70.91;99876.66;1677644;84;21094;-60
2022/05/20 08:49:14;;;;;;;6.40;3.40;;;;;;;20.17;68.04;99873.89;1683663;84;21052;-60
2022/05/20 08:51:42;;;;;;;12.50;3.58;;;;;;;20.19;70.68;99872.97;1694678;83;21042;-59
2022/05/20 08:54:09;;;;;;;8.45;3.33;;;;;;;20.31;65.91;99873.13;1698711;83;21032;-60
2022/05/20 08:56:37;;;;;;;7.37;3.40;;;;;;;20.54;75.33;99868.13;1654232;85;21062;-60
2022/05/20 08:59:10;;;;;;;8.03;3.02;;;;;;;21.01;76.45;99865.20;1669383;84;21008;-60
2022/05/20 09:04:26;;;;;;;5.90;3.17;;;;;;;22.11;57.39;99861.09;1802394;78;22771;-58
2022/05/20 09:07:07;;;;;;;5.12;2.87;;;;;;;22.63;50.51;99865.95;1766276;80;21053;-58
2022/05/20 09:09:52;;;;;;;8.43;3.20;;;;;;;22.63;50.51;99865.95;1754023;81;21042;-58
2022/05/20 09:12:34;;;;;;;10.38;3.70;;;;;;;22.97;48.60;99871.00;1743168;81;21517;-58
2022/05/20 09:18:07;;;;;;;6.33;3.00;;;;;;;23.07;49.38;99858.59;1751347;80;21016;-59
2022/05/20 09:20:33;;;;;;;7.03;2.92;;;;;;;23.22;49.89;99860.05;1753580;80;21482;-58
2022/05/20 09:23:03;;;;;;;6.30;3.20;;;;;;;23.37;47.19;99852.12;1752784;80;21019;-59
2022/05/20 09:25:33;;;;;;;7.12;2.98;;;;;;;23.46;47.66;99839.72;1714919;81;20986;-58
2022/05/20 09:28:25;;;;;;;4.95;2.80;;;;;;;23.51;43.43;99831.14;1770600;80;21010;-60
2022/05/20 09:30:54;;;;;;;8.85;2.37;;;;;;;23.41;42.57;99833.59;1736530;81;21013;-59
2022/05/20 09:33:24;;;;;;;6.97;2.90;;;;;;;23.40;42.85;99831.39;1766431;80;21011;-59
2022/05/20 09:35:58;;;;;;;5.72;2.50;;;;;;;23.41;42.16;99822.48;1757523;81;21006;-58
2022/05/20 09:38:35;;;;;;;7.25;2.52;;;;;;;23.44;41.25;99809.30;1749596;80;20995;-58
2022/05/20 09:41:16;;;;;;;6.65;2.45;;;;;;;23.36;39.78;99808.27;1743240;80;20995;-58
2022/05/20 09:43:47;;;;;;;10.15;2.92;;;;;;;23.19;43.13;99813.55;1750807;81;21045;-58
2022/05/20 09:46:34;;;;;;;8.38;2.40;;;;;;;23.32;41.63;99803.19;1736267;81;21042;-58
2022/05/20 09:49:08;;;;;;;5.70;2.20;;;;;;;23.30;42.05;99804.95;1749513;81;21053;-58
2022/05/20 09:51:54;;;;;;;9.95;3.17;;;;;;;23.20;39.99;99797.70;1723639;82;21660;-58
2022/05/20 09:54:31;;;;;;;5.47;2.93;;;;;;;23.17;38.91;99801.16;1740895;81;21033;-58
2022/05/20 09:57:13;;;;;;;6.30;2.10;;;;;;;23.28;35.11;99782.26;1742828;80;21006;-58
2022/05/20 10:00:09;;;;;;;5.55;2.65;;;;;;;23.28;35.11;99782.26;1728012;81;20983;-59
2022/05/20 10:02:56;;;;;;;7.72;2.05;;;;;;;23.25;36.09;99782.97;1752486;81;21023;-58
2022/05/20 10:05:43;;;;;;;5.42;2.55;;;;;;;23.36;36.26;99781.06;1754019;80;21100;-59
2022/05/20 10:08:21;;;;;;;5.15;1.98;;;;;;;23.70;34.54;99761.77;1753901;81;21093;-60
2022/05/20 10:11:20;;;;;;;6.47;2.05;;;;;;;23.70;34.54;99761.77;1752889;80;21599;-58
2022/05/20 10:14:02;;;;;;;6.03;2.37;;;;;;;23.76;32.57;99754.80;1765607;80;21045;-59
2022/05/20 10:16:54;;;;;;;5.35;1.85;;;;;;;23.65;34.17;99750.94;1734820;80;21126;-59
2022/05/20 10:19:45;;;;;;;6.15;2.10;;;;;;;23.67;33.90;99747.20;1750390;81;20999;-58
2022/05/20 10:22:20;;;;;;;6.47;3.25;;;;;;;23.60;34.11;99746.20;1750913;81;21073;-59
2022/05/20 10:25:26;;;;;;;8.03;4.10;;;;;;;23.55;35.30;99740.36;1758367;81;21469;-59
2022/05/20 10:34:08;;;;;;;5.60;2.47;;;;;;;23.80;34.31;99729.87;1711623;83;21023;-59
2022/05/20 10:37:03;;;;;;;7.80;4.03;;;;;;;23.95;34.94;99720.68;1700928;83;21072;-59
2022/05/20 10:39:56;;;;;;;5.53;2.85;;;;;;;24.16;32.19;99705.13;1688356;83;21522;-59
2022/05/20 10:43:08;;;;;;;6.15;3.33;;;;;;;24.16;32.19;99705.13;1680134;85;21094;-59
2022/05/20 10:48:53;;;;;;;3.40;2.12;;;;;;;24.28;31.39;99696.06;1695841;83;20978;-59
2022/05/20 10:51:34;;;;;;;4.47;2.02;;;;;;;24.26;31.29;99697.61;1675578;85;21552;-59
2022/05/20 10:54:33;;;;;;;4.92;2.10;;;;;;;24.23;31.48;99683.05;1676025;85;21043;-59
2022/05/20 10:57:42;;;;;;;6.87;1.80;;;;;;;24.33;30.99;99688.61;1692163;83;21625;-59
2022/05/20 11:00:13;;;;;;;6.80;1.47;;;;;;;24.28;29.83;99675.20;1684715;84;21007;-59
2022/05/20 11:03:17;;;;;;;4.10;1.60;;;;;;;24.25;30.25;99664.81;1684408;84;20977;-59
2022/05/20 11:05:51;;;;;;;4.62;1.55;;;;;;;24.26;31.81;99667.83;1693712;85;21763;-60
2022/05/20 11:09:01;;;;;;;5.83;1.80;;;;;;;24.51;34.26;99658.61;1673003;85;21078;-59
2022/05/20 11:11:57;;;;;;;4.53;2.12;;;;;;;24.82;34.53;99658.20;1687921;84;21042;-59
2022/05/20 11:14:47;;;;;;;4.65;2.87;;;;;;;25.00;32.41;99644.06;1685712;84;21039;-59
2022/05/20 11:17:37;;;;;;;4.47;1.70;;;;;;;25.12;32.11;99643.28;1653567;83;20991;-59
2022/05/20 11:20:35;;;;;;;4.33;1.60;;;;;;;25.29;32.54;99641.20;1705261;84;20994;-59
2022/05/20 11:23:10;;;;;;;6.03;1.45;;;;;;;25.49;32.35;99629.60;1673708;84;21093;-59
2022/05/20 11:26:01;;;;;;;3.70;1.63;;;;;;;25.45;31.53;99627.92;1695175;84;21404;-58
2022/05/20 11:29:00;;;;;;;2.77;1.27;;;;;;;25.44;32.20;99622.13;1690247;84;21013;-59
2022/05/20 11:31:45;;;;;;;7.50;1.10;;;;;;;25.65;31.80;99616.92;1699165;83;21041;-59
2022/05/20 11:34:48;;;;;;;7.65;1.52;;;;;;;25.86;32.06;99610.30;1692700;84;21082;-59
2022/05/20 11:37:32;;;;;;;7.17;1.27;;;;;;;26.04;32.35;99609.14;1635776;85;21064;-58
2022/05/20 11:40:42;;;;;;;3.15;1.20;;;;;;;26.22;32.62;99601.81;1691011;84;21006;-58
2022/05/20 11:43:38;;;;;;;4.60;1.35;;;;;;;26.34;31.28;99603.56;1702230;84;21060;-58
2022/05/20 11:46:33;;;;;;;4.22;1.42;;;;;;;26.27;30.47;99605.68;1683967;84;21586;-59
2022/05/20 11:49:43;;;;;;;4.78;1.12;;;;;;;26.22;30.31;99594.25;1701350;84;21025;-59
2022/05/20 11:52:28;;;;;;;;;;;;;;;26.28;30.66;99590.55;1680695;84;21022;-59
2022/05/20 11:55:10;;;;;;;3.77;0.93;;;;;;;26.41;31.52;99586.91;1676073;84;20457;-58
2022/05/20 11:57:40;;;;;;;4.60;1.30;;;;;;;26.36;31.12;99583.08;1694853;83;21454;-59
2022/05/20 12:00:10;;;;;;;4.55;1.20;;;;;;;26.46;31.71;99579.60;1689937;84;21009;-58
2022/05/20 12:02:53;;;;;;;5.03;1.80;;;;;;;26.57;31.92;99573.55;1645120;84;21505;-58
2022/05/20 12:05:24;;;;;;;5.70;2.40;;;;;;;26.62;30.28;99581.56;1692616;83;21046;-59
2022/05/20 12:07:53;;;;;;;3.65;1.10;;;;;;;26.51;29.86;99569.47;1697321;84;20978;-59
2022/05/20 12:10:43;;;;;;;4.80;1.20;;;;;;;26.47;30.61;99575.61;1706822;83;21629;-59
2022/05/20 12:13:25;;;;;;;5.12;0.95;;;;;;;26.48;28.54;99567.45;1683732;83;21042;-58
2022/05/20 12:16:11;;;;;;;5.40;1.20;;;;;;;26.38;28.77;99561.16;1690735;84;21047;-58
2022/05/20 12:24:49;;;;;;;4.58;1.50;;;;;;;26.49;29.85;99544.75;1683735;84;21545;-57
2022/05/20 12:27:27;;;;;;;7.85;3.00;;;;;;;26.46;29.93;99546.11;1654753;85;21042;-57
2022/05/20 12:30:04;;;;;;;9.25;5.15;;;;;;;26.40;29.73;99550.41;1688882;83;20990;-58
2022/05/20 12:32:40;;;;;;;8.20;5.03;;;;;;;26.29;30.98;99537.73;1691081;83;21531;-57
2022/05/20 12:35:20;;;;;;;9.18;5.17;;;;;;;26.21;30.49;99535.48;1689317;83;21044;-58
2022/05/20 12:37:52;;;;;;;7.10;2.98;;;;;;;26.13;29.62;99526.77;1680157;83;20971;-57
2022/05/20 12:40:30;;;;;;;10.00;3.87;;;;;;;26.05;30.04;99520.89;1695626;84;21122;-58
2022/05/20 12:43:08;;;;;;;4.45;1.60;;;;;;;25.95;30.26;99517.38;1695391;84;20963;-57
2022/05/20 12:45:53;;;;;;;9.10;2.80;;;;;;;25.92;28.89;99515.94;1696585;83;21074;-57
2022/05/20 12:48:28;;;;;;;9.30;3.85;;;;;;;25.70;29.86;99519.84;1689554;84;21514;-57